sensor_id;sensor_type;location;lat;lon;timestamp;P1;durP1;ratioP1;P2;durP2;ratioP2
26034;SDS011;13809;48.632;11.576;2022-09-06T00:01:54;3.13;;;2.80;;
26034;SDS011;13809;48.632;11.576;2022-09-06T00:06:58;2.90;;;2.70;;
26034;SDS011;13809;48.632;11.576;2022-09-06T00:12:02;2.90;;;2.70;;
26034;SDS011;13809;48.632;11.576;2022-09-06T00:17:05;3.67;;;2.87;;
26034;SDS011;13809;48.632;11.576;2022-09-06T00:22:09;2.37;;;2.27;;
26034;SDS011;13809;48.632;11.576;2022-09-06T00:27:13;3.00;;;2.80;;
26034;SDS011;13809;48.632;11.576;2022-09-06T00:32:17;3.10;;;2.90;;
26034;SDS011;13809;48.632;11.576;2022-09-06T00:37:20;2.60;;;2.50;;
26034;SDS011;13809;48.632;11.576;2022-09-06T00:42:25;4.97;;;3.20;;
26034;SDS011;13809;48.632;11.576;2022-09-06T00:47:28;3.20;;;2.90;;
26034;SDS011;13809;48.632;11.576;2022-09-06T00:52:32;3.13;;;2.83;;
26034;SDS011;13809;48.632;11.576;2022-09-06T00:57:37;3.07;;;2.87;;
26034;SDS011;13809;48.632;11.576;2022-09-06T01:02:41;3.00;;;2.80;;
26034;SDS011;13809;48.632;11.576;2022-09-06T01:07:48;2.67;;;2.47;;
26034;SDS011;13809;48.632;11.576;2022-09-06T01:13:03;2.90;;;2.70;;
26034;SDS011;13809;48.632;11.576;2022-09-06T01:18:16;3.63;;;3.40;;
26034;SDS011;13809;48.632;11.576;2022-09-06T01:23:39;2.60;;;2.50;;
26034;SDS011;13809;48.632;11.576;2022-09-06T01:29:07;3.67;;;3.40;;
26034;SDS011;13809;48.632;11.576;2022-09-06T01:34:18;3.10;;;2.90;;
26034;SDS011;13809;48.632;11.576;2022-09-06T01:39:26;3.83;;;3.50;;
26034;SDS011;13809;48.632;11.576;2022-09-06T01:44:32;3.57;;;3.37;;
26034;SDS011;13809;48.632;11.576;2022-09-06T01:49:42;3.73;;;3.20;;
26034;SDS011;13809;48.632;11.576;2022-09-06T01:54:58;3.73;;;2.93;;
26034;SDS011;13809;48.632;11.576;2022-09-06T02:00:11;3.60;;;3.30;;
26034;SDS011;13809;48.632;11.576;2022-09-06T02:05:17;3.47;;;3.07;;
26034;SDS011;13809;48.632;11.576;2022-09-06T02:10:26;3.23;;;3.03;;
26034;SDS011;13809;48.632;11.576;2022-09-06T02:15:36;3.53;;;3.33;;
26034;SDS011;13809;48.632;11.576;2022-09-06T02:20:44;3.53;;;3.33;;
26034;SDS011;13809;48.632;11.576;2022-09-06T02:25:51;3.50;;;3.30;;
26034;SDS011;13809;48.632;11.576;2022-09-06T02:31:01;3.53;;;3.33;;
26034;SDS011;13809;48.632;11.576;2022-09-06T02:36:10;3.00;;;2.80;;
26034;SDS011;13809;48.632;11.576;2022-09-06T02:41:16;3.37;;;3.17;;
26034;SDS011;13809;48.632;11.576;2022-09-06T02:46:24;3.40;;;3.00;;
26034;SDS011;13809;48.632;11.576;2022-09-06T02:51:27;3.47;;;3.20;;
26034;SDS011;13809;48.632;11.576;2022-09-06T02:56:30;3.07;;;2.87;;
26034;SDS011;13809;48.632;11.576;2022-09-06T03:01:38;3.10;;;2.90;;
26034;SDS011;13809;48.632;11.576;2022-09-06T03:06:41;2.90;;;2.70;;
26034;SDS011;13809;48.632;11.576;2022-09-06T03:11:44;3.83;;;3.63;;
26034;SDS011;13809;48.632;11.576;2022-09-06T03:16:49;4.07;;;3.77;;
26034;SDS011;13809;48.632;11.576;2022-09-06T03:21:52;4.10;;;3.63;;
26034;SDS011;13809;48.632;11.576;2022-09-06T03:26:55;4.50;;;4.20;;
26034;SDS011;13809;48.632;11.576;2022-09-06T03:32:00;5.17;;;3.57;;
26034;SDS011;13809;48.632;11.576;2022-09-06T03:37:04;3.37;;;3.17;;
26034;SDS011;13809;48.632;11.576;2022-09-06T03:42:07;4.27;;;3.87;;
26034;SDS011;13809;48.632;11.576;2022-09-06T03:47:12;3.10;;;2.90;;
26034;SDS011;13809;48.632;11.576;2022-09-06T03:52:19;3.30;;;3.10;;
26034;SDS011;13809;48.632;11.576;2022-09-06T03:57:23;3.40;;;3.07;;
26034;SDS011;13809;48.632;11.576;2022-09-06T04:02:27;3.30;;;3.10;;
26034;SDS011;13809;48.632;11.576;2022-09-06T04:07:30;3.80;;;3.50;;
26034;SDS011;13809;48.632;11.576;2022-09-06T04:12:34;3.70;;;3.50;;
26034;SDS011;13809;48.632;11.576;2022-09-06T04:17:38;4.17;;;3.87;;
26034;SDS011;13809;48.632;11.576;2022-09-06T04:22:45;3.63;;;3.33;;
26034;SDS011;13809;48.632;11.576;2022-09-06T04:27:48;3.37;;;3.17;;
26034;SDS011;13809;48.632;11.576;2022-09-06T04:32:53;3.40;;;3.20;;
26034;SDS011;13809;48.632;11.576;2022-09-06T04:37:58;3.33;;;3.13;;
26034;SDS011;13809;48.632;11.576;2022-09-06T04:43:02;4.50;;;4.20;;
26034;SDS011;13809;48.632;11.576;2022-09-06T04:48:06;4.30;;;3.90;;
26034;SDS011;13809;48.632;11.576;2022-09-06T04:53:10;4.53;;;4.13;;
26034;SDS011;13809;48.632;11.576;2022-09-06T04:58:13;4.63;;;4.27;;
26034;SDS011;13809;48.632;11.576;2022-09-06T05:03:18;5.33;;;4.83;;
26034;SDS011;13809;48.632;11.576;2022-09-06T05:08:21;4.67;;;4.30;;
26034;SDS011;13809;48.632;11.576;2022-09-06T05:13:24;4.07;;;3.77;;
26034;SDS011;13809;48.632;11.576;2022-09-06T05:18:29;4.30;;;3.90;;
26034;SDS011;13809;48.632;11.576;2022-09-06T05:23:32;3.70;;;3.47;;
26034;SDS011;13809;48.632;11.576;2022-09-06T05:28:35;4.27;;;3.97;;
26034;SDS011;13809;48.632;11.576;2022-09-06T05:33:40;4.03;;;3.70;;
26034;SDS011;13809;48.632;11.576;2022-09-06T05:38:43;3.93;;;3.63;;
26034;SDS011;13809;48.632;11.576;2022-09-06T05:43:46;5.60;;;5.10;;
26034;SDS011;13809;48.632;11.576;2022-09-06T05:48:54;4.60;;;4.20;;
26034;SDS011;13809;48.632;11.576;2022-09-06T05:54:00;6.33;;;5.50;;
26034;SDS011;13809;48.632;11.576;2022-09-06T05:59:03;6.87;;;6.37;;
26034;SDS011;13809;48.632;11.576;2022-09-06T06:04:07;8.17;;;7.57;;
26034;SDS011;13809;48.632;11.576;2022-09-06T06:09:10;9.17;;;8.23;;
26034;SDS011;13809;48.632;11.576;2022-09-06T06:14:14;9.87;;;8.53;;
26034;SDS011;13809;48.632;11.576;2022-09-06T06:19:19;8.27;;;7.57;;
26034;SDS011;13809;48.632;11.576;2022-09-06T06:24:22;9.00;;;8.20;;
26034;SDS011;13809;48.632;11.576;2022-09-06T06:29:26;9.13;;;8.23;;
26034;SDS011;13809;48.632;11.576;2022-09-06T06:34:30;9.47;;;8.77;;
26034;SDS011;13809;48.632;11.576;2022-09-06T06:39:33;9.47;;;8.67;;
26034;SDS011;13809;48.632;11.576;2022-09-06T06:44:37;10.93;;;9.83;;
26034;SDS011;13809;48.632;11.576;2022-09-06T06:49:41;10.80;;;9.70;;
26034;SDS011;13809;48.632;11.576;2022-09-06T06:54:45;10.13;;;9.33;;
26034;SDS011;13809;48.632;11.576;2022-09-06T06:59:49;9.50;;;8.70;;
26034;SDS011;13809;48.632;11.576;2022-09-06T07:04:54;10.57;;;9.77;;
26034;SDS011;13809;48.632;11.576;2022-09-06T07:09:57;9.53;;;8.70;;
26034;SDS011;13809;48.632;11.576;2022-09-06T07:15:20;10.07;;;9.37;;
26034;SDS011;13809;48.632;11.576;2022-09-06T07:20:26;9.40;;;8.53;;
26034;SDS011;13809;48.632;11.576;2022-09-06T07:25:30;9.70;;;9.00;;
26034;SDS011;13809;48.632;11.576;2022-09-06T07:30:34;9.50;;;8.73;;
26034;SDS011;13809;48.632;11.576;2022-09-06T07:35:39;10.00;;;8.80;;
26034;SDS011;13809;48.632;11.576;2022-09-06T07:40:43;9.30;;;8.50;;
26034;SDS011;13809;48.632;11.576;2022-09-06T07:46:02;8.23;;;7.43;;
26034;SDS011;13809;48.632;11.576;2022-09-06T07:51:09;7.63;;;7.07;;
26034;SDS011;13809;48.632;11.576;2022-09-06T07:56:15;7.43;;;6.83;;
26034;SDS011;13809;48.632;11.576;2022-09-06T08:01:26;7.30;;;6.80;;
26034;SDS011;13809;48.632;11.576;2022-09-06T08:06:33;7.33;;;6.67;;
26034;SDS011;13809;48.632;11.576;2022-09-06T08:11:58;6.47;;;5.97;;
26034;SDS011;13809;48.632;11.576;2022-09-06T08:17:07;5.80;;;5.30;;
26034;SDS011;13809;48.632;11.576;2022-09-06T08:22:11;5.10;;;4.70;;
26034;SDS011;13809;48.632;11.576;2022-09-06T08:27:14;4.83;;;4.40;;
26034;SDS011;13809;48.632;11.576;2022-09-06T08:32:18;5.30;;;4.90;;
26034;SDS011;13809;48.632;11.576;2022-09-06T08:37:22;4.47;;;4.17;;
26034;SDS011;13809;48.632;11.576;2022-09-06T08:42:26;4.93;;;4.50;;
26034;SDS011;13809;48.632;11.576;2022-09-06T08:47:38;4.80;;;4.40;;
26034;SDS011;13809;48.632;11.576;2022-09-06T08:52:54;4.10;;;3.80;;
26034;SDS011;13809;48.632;11.576;2022-09-06T08:58:24;4.30;;;4.00;;
26034;SDS011;13809;48.632;11.576;2022-09-06T09:03:37;4.50;;;4.20;;
26034;SDS011;13809;48.632;11.576;2022-09-06T09:08:44;4.27;;;3.97;;
26034;SDS011;13809;48.632;11.576;2022-09-06T09:13:54;4.07;;;3.77;;
26034;SDS011;13809;48.632;11.576;2022-09-06T09:19:06;4.03;;;3.63;;
26034;SDS011;13809;48.632;11.576;2022-09-06T09:24:12;3.77;;;3.37;;
26034;SDS011;13809;48.632;11.576;2022-09-06T09:29:18;3.80;;;3.50;;
26034;SDS011;13809;48.632;11.576;2022-09-06T09:34:29;3.40;;;3.20;;
26034;SDS011;13809;48.632;11.576;2022-09-06T09:39:38;3.70;;;3.30;;
26034;SDS011;13809;48.632;11.576;2022-09-06T09:44:42;3.30;;;3.10;;
26034;SDS011;13809;48.632;11.576;2022-09-06T09:49:47;3.63;;;3.10;;
26034;SDS011;13809;48.632;11.576;2022-09-06T09:54:52;3.40;;;3.10;;
26034;SDS011;13809;48.632;11.576;2022-09-06T09:59:58;3.33;;;3.13;;
26034;SDS011;13809;48.632;11.576;2022-09-06T10:05:03;3.20;;;3.00;;
26034;SDS011;13809;48.632;11.576;2022-09-06T10:10:11;3.83;;;3.30;;
26034;SDS011;13809;48.632;11.576;2022-09-06T10:15:30;3.03;;;2.83;;
26034;SDS011;13809;48.632;11.576;2022-09-06T10:20:37;3.17;;;2.97;;
26034;SDS011;13809;48.632;11.576;2022-09-06T10:25:45;3.53;;;3.27;;
26034;SDS011;13809;48.632;11.576;2022-09-06T10:30:52;3.30;;;3.00;;
26034;SDS011;13809;48.632;11.576;2022-09-06T10:36:04;2.60;;;2.40;;
26034;SDS011;13809;48.632;11.576;2022-09-06T10:41:16;2.67;;;2.47;;
26034;SDS011;13809;48.632;11.576;2022-09-06T10:46:35;3.03;;;2.40;;
26034;SDS011;13809;48.632;11.576;2022-09-06T10:51:43;2.67;;;2.57;;
26034;SDS011;13809;48.632;11.576;2022-09-06T10:56:52;2.33;;;2.20;;
26034;SDS011;13809;48.632;11.576;2022-09-06T11:02:01;2.50;;;2.30;;
26034;SDS011;13809;48.632;11.576;2022-09-06T11:07:15;2.40;;;2.30;;
26034;SDS011;13809;48.632;11.576;2022-09-06T11:12:28;2.67;;;2.47;;
26034;SDS011;13809;48.632;11.576;2022-09-06T11:17:37;4.47;;;2.70;;
26034;SDS011;13809;48.632;11.576;2022-09-06T11:28:27;2.50;;;2.30;;
26034;SDS011;13809;48.632;11.576;2022-09-06T11:33:35;2.80;;;2.20;;
26034;SDS011;13809;48.632;11.576;2022-09-06T11:38:40;2.47;;;2.30;;
26034;SDS011;13809;48.632;11.576;2022-09-06T11:43:46;2.70;;;2.50;;
26034;SDS011;13809;48.632;11.576;2022-09-06T11:49:00;2.60;;;2.40;;
26034;SDS011;13809;48.632;11.576;2022-09-06T11:54:09;2.50;;;2.20;;
26034;SDS011;13809;48.632;11.576;2022-09-06T11:59:31;2.47;;;2.17;;
26034;SDS011;13809;48.632;11.576;2022-09-06T12:15:53;3.27;;;2.30;;
26034;SDS011;13809;48.632;11.576;2022-09-06T12:21:00;5.93;;;2.30;;
26034;SDS011;13809;48.632;11.576;2022-09-06T12:26:04;2.10;;;2.00;;
26034;SDS011;13809;48.632;11.576;2022-09-06T12:31:26;3.83;;;1.90;;
26034;SDS011;13809;48.632;11.576;2022-09-06T12:36:32;4.13;;;2.10;;
26034;SDS011;13809;48.632;11.576;2022-09-06T12:41:36;4.17;;;1.90;;
26034;SDS011;13809;48.632;11.576;2022-09-06T12:46:46;4.97;;;2.00;;
26034;SDS011;13809;48.632;11.576;2022-09-06T12:52:03;3.97;;;2.03;;
26034;SDS011;13809;48.632;11.576;2022-09-06T12:57:11;6.00;;;2.17;;
26034;SDS011;13809;48.632;11.576;2022-09-06T13:02:18;3.23;;;2.33;;
26034;SDS011;13809;48.632;11.576;2022-09-06T13:07:25;3.27;;;2.43;;
26034;SDS011;13809;48.632;11.576;2022-09-06T13:12:32;4.10;;;2.20;;
26034;SDS011;13809;48.632;11.576;2022-09-06T13:17:38;3.07;;;2.20;;
26034;SDS011;13809;48.632;11.576;2022-09-06T13:22:42;3.87;;;2.40;;
26034;SDS011;13809;48.632;11.576;2022-09-06T13:27:47;3.90;;;2.23;;
26034;SDS011;13809;48.632;11.576;2022-09-06T13:32:52;2.67;;;2.47;;
26034;SDS011;13809;48.632;11.576;2022-09-06T13:43:21;2.90;;;2.40;;
26034;SDS011;13809;48.632;11.576;2022-09-06T13:48:26;4.53;;;2.60;;
26034;SDS011;13809;48.632;11.576;2022-09-06T13:53:30;4.50;;;2.60;;
26034;SDS011;13809;48.632;11.576;2022-09-06T13:58:33;3.33;;;2.17;;
26034;SDS011;13809;48.632;11.576;2022-09-06T14:03:39;5.10;;;2.20;;
26034;SDS011;13809;48.632;11.576;2022-09-06T14:08:43;3.23;;;2.50;;
26034;SDS011;13809;48.632;11.576;2022-09-06T14:14:06;3.33;;;2.30;;
26034;SDS011;13809;48.632;11.576;2022-09-06T14:19:11;3.30;;;2.20;;
26034;SDS011;13809;48.632;11.576;2022-09-06T14:24:14;4.60;;;2.50;;
26034;SDS011;13809;48.632;11.576;2022-09-06T14:29:18;3.70;;;2.30;;
26034;SDS011;13809;48.632;11.576;2022-09-06T14:34:22;4.70;;;2.30;;
26034;SDS011;13809;48.632;11.576;2022-09-06T14:39:26;3.37;;;2.30;;
26034;SDS011;13809;48.632;11.576;2022-09-06T14:44:29;3.37;;;2.00;;
26034;SDS011;13809;48.632;11.576;2022-09-06T14:49:34;4.33;;;2.60;;
26034;SDS011;13809;48.632;11.576;2022-09-06T14:54:37;4.17;;;2.40;;
26034;SDS011;13809;48.632;11.576;2022-09-06T14:59:40;3.77;;;2.40;;
26034;SDS011;13809;48.632;11.576;2022-09-06T15:04:45;5.77;;;2.60;;
26034;SDS011;13809;48.632;11.576;2022-09-06T15:09:49;4.27;;;2.53;;
26034;SDS011;13809;48.632;11.576;2022-09-06T15:14:52;6.20;;;2.30;;
26034;SDS011;13809;48.632;11.576;2022-09-06T15:19:58;3.10;;;2.33;;
26034;SDS011;13809;48.632;11.576;2022-09-06T15:25:01;3.90;;;2.30;;
26034;SDS011;13809;48.632;11.576;2022-09-06T15:30:05;4.57;;;2.20;;
26034;SDS011;13809;48.632;11.576;2022-09-06T15:35:10;3.83;;;2.17;;
26034;SDS011;13809;48.632;11.576;2022-09-06T15:40:13;4.37;;;2.27;;
26034;SDS011;13809;48.632;11.576;2022-09-06T15:45:16;6.93;;;2.20;;
26034;SDS011;13809;48.632;11.576;2022-09-06T15:50:21;5.33;;;2.10;;
26034;SDS011;13809;48.632;11.576;2022-09-06T15:55:45;4.57;;;2.30;;
26034;SDS011;13809;48.632;11.576;2022-09-06T16:01:01;6.10;;;1.93;;
26034;SDS011;13809;48.632;11.576;2022-09-06T16:06:08;2.27;;;1.93;;
26034;SDS011;13809;48.632;11.576;2022-09-06T16:11:29;2.60;;;1.80;;
26034;SDS011;13809;48.632;11.576;2022-09-06T16:16:36;2.40;;;1.70;;
26034;SDS011;13809;48.632;11.576;2022-09-06T16:21:42;3.77;;;1.83;;
26034;SDS011;13809;48.632;11.576;2022-09-06T16:26:45;2.93;;;1.80;;
26034;SDS011;13809;48.632;11.576;2022-09-06T16:31:49;1.90;;;1.70;;
26034;SDS011;13809;48.632;11.576;2022-09-06T16:36:58;2.63;;;1.70;;
26034;SDS011;13809;48.632;11.576;2022-09-06T16:42:07;3.87;;;1.70;;
26034;SDS011;13809;48.632;11.576;2022-09-06T16:47:11;2.60;;;1.50;;
26034;SDS011;13809;48.632;11.576;2022-09-06T16:52:18;4.43;;;2.00;;
26034;SDS011;13809;48.632;11.576;2022-09-06T16:57:21;2.63;;;2.10;;
26034;SDS011;13809;48.632;11.576;2022-09-06T17:02:25;3.87;;;2.53;;
26034;SDS011;13809;48.632;11.576;2022-09-06T17:07:30;2.70;;;2.23;;
26034;SDS011;13809;48.632;11.576;2022-09-06T17:12:33;3.97;;;1.93;;
26034;SDS011;13809;48.632;11.576;2022-09-06T17:17:36;4.83;;;2.27;;
26034;SDS011;13809;48.632;11.576;2022-09-06T17:22:41;3.93;;;2.10;;
26034;SDS011;13809;48.632;11.576;2022-09-06T17:27:44;3.00;;;2.13;;
26034;SDS011;13809;48.632;11.576;2022-09-06T17:32:48;2.37;;;1.90;;
26034;SDS011;13809;48.632;11.576;2022-09-06T17:37:53;3.67;;;2.10;;
26034;SDS011;13809;48.632;11.576;2022-09-06T17:42:56;4.13;;;2.10;;
26034;SDS011;13809;48.632;11.576;2022-09-06T17:47:59;2.60;;;2.10;;
26034;SDS011;13809;48.632;11.576;2022-09-06T17:53:04;2.90;;;2.40;;
26034;SDS011;13809;48.632;11.576;2022-09-06T17:58:07;2.20;;;2.00;;
26034;SDS011;13809;48.632;11.576;2022-09-06T18:03:10;5.43;;;2.47;;
26034;SDS011;13809;48.632;11.576;2022-09-06T18:08:15;4.03;;;2.30;;
26034;SDS011;13809;48.632;11.576;2022-09-06T18:13:18;2.63;;;2.30;;
26034;SDS011;13809;48.632;11.576;2022-09-06T18:18:21;2.37;;;2.17;;
26034;SDS011;13809;48.632;11.576;2022-09-06T18:23:28;3.63;;;2.40;;
26034;SDS011;13809;48.632;11.576;2022-09-06T18:28:32;4.70;;;3.07;;
26034;SDS011;13809;48.632;11.576;2022-09-06T18:33:38;4.37;;;2.70;;
26034;SDS011;13809;48.632;11.576;2022-09-06T18:38:44;3.50;;;2.97;;
26034;SDS011;13809;48.632;11.576;2022-09-06T18:43:48;4.23;;;2.90;;
26034;SDS011;13809;48.632;11.576;2022-09-06T18:48:52;3.70;;;3.20;;
26034;SDS011;13809;48.632;11.576;2022-09-06T18:53:57;3.67;;;3.10;;
26034;SDS011;13809;48.632;11.576;2022-09-06T18:59:01;4.10;;;3.10;;
26034;SDS011;13809;48.632;11.576;2022-09-06T19:04:06;2.83;;;2.63;;
26034;SDS011;13809;48.632;11.576;2022-09-06T19:09:11;3.60;;;2.93;;
26034;SDS011;13809;48.632;11.576;2022-09-06T19:14:16;6.63;;;3.03;;
26034;SDS011;13809;48.632;11.576;2022-09-06T19:19:19;5.27;;;3.50;;
26034;SDS011;13809;48.632;11.576;2022-09-06T19:24:25;5.27;;;4.73;;
26034;SDS011;13809;48.632;11.576;2022-09-06T19:29:28;5.53;;;4.77;;
26034;SDS011;13809;48.632;11.576;2022-09-06T19:34:32;6.47;;;4.97;;
26034;SDS011;13809;48.632;11.576;2022-09-06T19:39:37;7.20;;;6.53;;
26034;SDS011;13809;48.632;11.576;2022-09-06T19:44:40;7.70;;;6.60;;
26034;SDS011;13809;48.632;11.576;2022-09-06T19:49:44;8.20;;;5.80;;
26034;SDS011;13809;48.632;11.576;2022-09-06T19:54:49;5.57;;;5.07;;
26034;SDS011;13809;48.632;11.576;2022-09-06T19:59:53;5.63;;;4.97;;
26034;SDS011;13809;48.632;11.576;2022-09-06T20:04:57;5.33;;;4.83;;
26034;SDS011;13809;48.632;11.576;2022-09-06T20:10:02;4.97;;;4.30;;
26034;SDS011;13809;48.632;11.576;2022-09-06T20:15:07;4.10;;;3.80;;
26034;SDS011;13809;48.632;11.576;2022-09-06T20:20:11;4.00;;;3.63;;
26034;SDS011;13809;48.632;11.576;2022-09-06T20:25:16;6.23;;;4.50;;
26034;SDS011;13809;48.632;11.576;2022-09-06T20:30:20;4.47;;;4.13;;
26034;SDS011;13809;48.632;11.576;2022-09-06T20:35:23;6.63;;;4.10;;
26034;SDS011;13809;48.632;11.576;2022-09-06T20:40:28;4.70;;;4.30;;
26034;SDS011;13809;48.632;11.576;2022-09-06T20:45:31;4.07;;;3.63;;
26034;SDS011;13809;48.632;11.576;2022-09-06T20:50:35;5.73;;;5.00;;
26034;SDS011;13809;48.632;11.576;2022-09-06T20:55:39;5.83;;;4.60;;
26034;SDS011;13809;48.632;11.576;2022-09-06T21:00:44;5.67;;;4.77;;
26034;SDS011;13809;48.632;11.576;2022-09-06T21:05:47;5.07;;;4.50;;
26034;SDS011;13809;48.632;11.576;2022-09-06T21:10:57;5.67;;;4.27;;
26034;SDS011;13809;48.632;11.576;2022-09-06T21:16:01;5.30;;;4.80;;
26034;SDS011;13809;48.632;11.576;2022-09-06T21:21:06;4.87;;;4.40;;
26034;SDS011;13809;48.632;11.576;2022-09-06T21:26:11;5.40;;;3.90;;
26034;SDS011;13809;48.632;11.576;2022-09-06T21:31:16;6.47;;;4.20;;
26034;SDS011;13809;48.632;11.576;2022-09-06T21:36:22;6.13;;;4.53;;
26034;SDS011;13809;48.632;11.576;2022-09-06T21:41:31;5.60;;;5.00;;
26034;SDS011;13809;48.632;11.576;2022-09-06T21:46:36;7.40;;;5.30;;
26034;SDS011;13809;48.632;11.576;2022-09-06T21:51:40;5.20;;;4.70;;
26034;SDS011;13809;48.632;11.576;2022-09-06T21:56:45;6.47;;;4.93;;
26034;SDS011;13809;48.632;11.576;2022-09-06T22:01:49;4.90;;;4.03;;
26034;SDS011;13809;48.632;11.576;2022-09-06T22:06:54;5.60;;;4.83;;
26034;SDS011;13809;48.632;11.576;2022-09-06T22:11:59;5.00;;;4.50;;
26034;SDS011;13809;48.632;11.576;2022-09-06T22:17:03;5.23;;;4.73;;
26034;SDS011;13809;48.632;11.576;2022-09-06T22:22:06;5.40;;;4.87;;
26034;SDS011;13809;48.632;11.576;2022-09-06T22:27:11;6.07;;;4.73;;
26034;SDS011;13809;48.632;11.576;2022-09-06T22:32:14;5.77;;;4.70;;
26034;SDS011;13809;48.632;11.576;2022-09-06T22:37:18;7.23;;;5.40;;
26034;SDS011;13809;48.632;11.576;2022-09-06T22:42:22;5.20;;;4.70;;
26034;SDS011;13809;48.632;11.576;2022-09-06T22:47:26;5.53;;;4.70;;
26034;SDS011;13809;48.632;11.576;2022-09-06T22:52:29;5.40;;;4.90;;
26034;SDS011;13809;48.632;11.576;2022-09-06T22:57:34;5.30;;;4.80;;
26034;SDS011;13809;48.632;11.576;2022-09-06T23:02:37;6.37;;;4.87;;
26034;SDS011;13809;48.632;11.576;2022-09-06T23:07:40;5.27;;;4.87;;
26034;SDS011;13809;48.632;11.576;2022-09-06T23:12:45;5.37;;;4.87;;
26034;SDS011;13809;48.632;11.576;2022-09-06T23:17:48;5.33;;;4.73;;
26034;SDS011;13809;48.632;11.576;2022-09-06T23:22:52;4.97;;;4.43;;
26034;SDS011;13809;48.632;11.576;2022-09-06T23:27:57;4.33;;;3.93;;
26034;SDS011;13809;48.632;11.576;2022-09-06T23:33:01;5.20;;;4.50;;
26034;SDS011;13809;48.632;11.576;2022-09-06T23:38:04;4.70;;;4.30;;
26034;SDS011;13809;48.632;11.576;2022-09-06T23:43:09;4.80;;;4.40;;
26034;SDS011;13809;48.632;11.576;2022-09-06T23:48:12;4.60;;;4.20;;
26034;SDS011;13809;48.632;11.576;2022-09-06T23:53:16;4.30;;;3.90;;
26034;SDS011;13809;48.632;11.576;2022-09-06T23:58:21;4.07;;;3.77;;
